sensor_id;sensor_type;location;lat;lon;timestamp;P1;durP1;ratioP1;P2;durP2;ratioP2
20020;SDS011;10171;42.694;23.318;2023-08-24T00:01:12;16.92;;;12.35;;
20020;SDS011;10171;42.694;23.318;2023-08-24T00:03:38;18.20;;;12.70;;
20020;SDS011;10171;42.694;23.318;2023-08-24T00:06:04;13.85;;;11.60;;
20020;SDS011;10171;42.694;23.318;2023-08-24T00:08:29;16.77;;;12.23;;
20020;SDS011;10171;42.694;23.318;2023-08-24T00:10:55;15.90;;;12.73;;
20020;SDS011;10171;42.694;23.318;2023-08-24T00:13:20;16.52;;;12.82;;
20020;SDS011;10171;42.694;23.318;2023-08-24T00:15:46;14.98;;;12.15;;
20020;SDS011;10171;42.694;23.318;2023-08-24T00:18:11;17.35;;;12.23;;
20020;SDS011;10171;42.694;23.318;2023-08-24T00:20:37;16.67;;;12.57;;
20020;SDS011;10171;42.694;23.318;2023-08-24T00:23:03;17.30;;;12.10;;
20020;SDS011;10171;42.694;23.318;2023-08-24T00:25:29;19.42;;;12.60;;
20020;SDS011;10171;42.694;23.318;2023-08-24T00:27:55;17.80;;;12.52;;
20020;SDS011;10171;42.694;23.318;2023-08-24T00:30:21;16.17;;;12.13;;
20020;SDS011;10171;42.694;23.318;2023-08-24T00:32:47;17.85;;;12.93;;
20020;SDS011;10171;42.694;23.318;2023-08-24T00:35:12;14.63;;;12.05;;
20020;SDS011;10171;42.694;23.318;2023-08-24T00:37:38;16.90;;;11.93;;
20020;SDS011;10171;42.694;23.318;2023-08-24T00:40:04;18.48;;;12.55;;
20020;SDS011;10171;42.694;23.318;2023-08-24T00:42:36;16.30;;;12.82;;
20020;SDS011;10171;42.694;23.318;2023-08-24T00:45:03;15.38;;;12.07;;
20020;SDS011;10171;42.694;23.318;2023-08-24T00:47:28;16.33;;;13.02;;
20020;SDS011;10171;42.694;23.318;2023-08-24T00:49:54;15.52;;;12.10;;
20020;SDS011;10171;42.694;23.318;2023-08-24T00:52:20;16.50;;;12.55;;
20020;SDS011;10171;42.694;23.318;2023-08-24T00:54:46;18.45;;;12.15;;
20020;SDS011;10171;42.694;23.318;2023-08-24T00:57:12;17.90;;;12.77;;
20020;SDS011;10171;42.694;23.318;2023-08-24T00:59:38;15.25;;;12.55;;
20020;SDS011;10171;42.694;23.318;2023-08-24T01:02:05;18.35;;;12.65;;
20020;SDS011;10171;42.694;23.318;2023-08-24T01:04:31;14.88;;;12.02;;
20020;SDS011;10171;42.694;23.318;2023-08-24T01:06:56;16.77;;;12.77;;
20020;SDS011;10171;42.694;23.318;2023-08-24T01:09:22;15.25;;;13.30;;
20020;SDS011;10171;42.694;23.318;2023-08-24T01:14:36;19.55;;;12.93;;
20020;SDS011;10171;42.694;23.318;2023-08-24T01:17:24;16.10;;;12.30;;
20020;SDS011;10171;42.694;23.318;2023-08-24T01:19:54;16.95;;;13.48;;
20020;SDS011;10171;42.694;23.318;2023-08-24T01:22:23;18.05;;;13.25;;
20020;SDS011;10171;42.694;23.318;2023-08-24T01:24:53;18.23;;;13.52;;
20020;SDS011;10171;42.694;23.318;2023-08-24T01:27:30;16.20;;;12.25;;
20020;SDS011;10171;42.694;23.318;2023-08-24T01:29:59;20.52;;;12.93;;
20020;SDS011;10171;42.694;23.318;2023-08-24T01:32:29;17.25;;;12.93;;
20020;SDS011;10171;42.694;23.318;2023-08-24T01:34:56;17.15;;;12.50;;
20020;SDS011;10171;42.694;23.318;2023-08-24T01:37:22;18.35;;;13.25;;
20020;SDS011;10171;42.694;23.318;2023-08-24T01:39:53;16.48;;;12.70;;
20020;SDS011;10171;42.694;23.318;2023-08-24T01:42:56;17.48;;;13.23;;
20020;SDS011;10171;42.694;23.318;2023-08-24T01:45:25;19.13;;;12.45;;
20020;SDS011;10171;42.694;23.318;2023-08-24T01:47:54;16.23;;;12.95;;
20020;SDS011;10171;42.694;23.318;2023-08-24T01:50:21;19.60;;;13.38;;
20020;SDS011;10171;42.694;23.318;2023-08-24T01:52:48;17.92;;;13.13;;
20020;SDS011;10171;42.694;23.318;2023-08-24T01:55:14;16.92;;;12.68;;
20020;SDS011;10171;42.694;23.318;2023-08-24T01:57:43;14.10;;;11.85;;
20020;SDS011;10171;42.694;23.318;2023-08-24T02:00:08;15.90;;;12.52;;
20020;SDS011;10171;42.694;23.318;2023-08-24T02:02:35;19.00;;;14.43;;
20020;SDS011;10171;42.694;23.318;2023-08-24T02:05:01;16.40;;;13.65;;
20020;SDS011;10171;42.694;23.318;2023-08-24T02:07:27;15.55;;;12.32;;
20020;SDS011;10171;42.694;23.318;2023-08-24T02:09:53;16.33;;;12.80;;
20020;SDS011;10171;42.694;23.318;2023-08-24T02:12:18;16.65;;;13.10;;
20020;SDS011;10171;42.694;23.318;2023-08-24T02:14:44;16.13;;;12.80;;
20020;SDS011;10171;42.694;23.318;2023-08-24T02:17:09;15.40;;;12.68;;
20020;SDS011;10171;42.694;23.318;2023-08-24T02:19:34;17.48;;;13.80;;
20020;SDS011;10171;42.694;23.318;2023-08-24T02:22:00;16.38;;;13.65;;
20020;SDS011;10171;42.694;23.318;2023-08-24T02:24:25;17.10;;;13.38;;
20020;SDS011;10171;42.694;23.318;2023-08-24T02:26:51;18.90;;;13.85;;
20020;SDS011;10171;42.694;23.318;2023-08-24T02:29:16;16.17;;;12.60;;
20020;SDS011;10171;42.694;23.318;2023-08-24T02:31:42;20.15;;;14.27;;
20020;SDS011;10171;42.694;23.318;2023-08-24T02:34:07;19.10;;;14.25;;
20020;SDS011;10171;42.694;23.318;2023-08-24T02:36:32;16.65;;;13.13;;
20020;SDS011;10171;42.694;23.318;2023-08-24T02:38:58;17.52;;;13.10;;
20020;SDS011;10171;42.694;23.318;2023-08-24T02:41:25;20.30;;;13.20;;
20020;SDS011;10171;42.694;23.318;2023-08-24T02:43:50;14.70;;;12.30;;
20020;SDS011;10171;42.694;23.318;2023-08-24T02:46:16;15.50;;;12.55;;
20020;SDS011;10171;42.694;23.318;2023-08-24T02:48:42;17.13;;;12.80;;
20020;SDS011;10171;42.694;23.318;2023-08-24T02:51:08;16.38;;;12.75;;
20020;SDS011;10171;42.694;23.318;2023-08-24T02:53:33;17.45;;;13.80;;
20020;SDS011;10171;42.694;23.318;2023-08-24T02:55:59;16.88;;;13.10;;
20020;SDS011;10171;42.694;23.318;2023-08-24T02:58:24;16.77;;;13.23;;
20020;SDS011;10171;42.694;23.318;2023-08-24T03:00:50;15.63;;;13.05;;
20020;SDS011;10171;42.694;23.318;2023-08-24T03:03:16;17.73;;;13.45;;
20020;SDS011;10171;42.694;23.318;2023-08-24T03:05:52;16.40;;;13.38;;
20020;SDS011;10171;42.694;23.318;2023-08-24T03:08:21;20.05;;;13.00;;
20020;SDS011;10171;42.694;23.318;2023-08-24T03:10:47;18.08;;;13.10;;
20020;SDS011;10171;42.694;23.318;2023-08-24T03:13:13;18.98;;;13.55;;
20020;SDS011;10171;42.694;23.318;2023-08-24T03:15:39;16.92;;;12.98;;
20020;SDS011;10171;42.694;23.318;2023-08-24T03:18:04;18.10;;;13.23;;
20020;SDS011;10171;42.694;23.318;2023-08-24T03:20:30;18.40;;;14.55;;
20020;SDS011;10171;42.694;23.318;2023-08-24T03:22:55;17.98;;;13.38;;
20020;SDS011;10171;42.694;23.318;2023-08-24T03:25:20;16.80;;;12.98;;
20020;SDS011;10171;42.694;23.318;2023-08-24T03:27:46;19.42;;;13.10;;
20020;SDS011;10171;42.694;23.318;2023-08-24T03:30:12;18.42;;;14.10;;
20020;SDS011;10171;42.694;23.318;2023-08-24T03:32:39;18.30;;;13.93;;
20020;SDS011;10171;42.694;23.318;2023-08-24T03:35:05;19.17;;;13.35;;
20020;SDS011;10171;42.694;23.318;2023-08-24T03:37:31;17.95;;;13.75;;
20020;SDS011;10171;42.694;23.318;2023-08-24T03:39:57;20.58;;;13.75;;
20020;SDS011;10171;42.694;23.318;2023-08-24T03:42:22;19.00;;;14.27;;
20020;SDS011;10171;42.694;23.318;2023-08-24T03:44:48;19.30;;;13.88;;
20020;SDS011;10171;42.694;23.318;2023-08-24T03:47:13;20.52;;;14.02;;
20020;SDS011;10171;42.694;23.318;2023-08-24T03:49:38;19.40;;;13.98;;
20020;SDS011;10171;42.694;23.318;2023-08-24T03:52:06;22.13;;;15.07;;
20020;SDS011;10171;42.694;23.318;2023-08-24T03:54:32;20.75;;;14.55;;
20020;SDS011;10171;42.694;23.318;2023-08-24T03:56:57;19.02;;;14.43;;
20020;SDS011;10171;42.694;23.318;2023-08-24T03:59:22;18.40;;;14.55;;
20020;SDS011;10171;42.694;23.318;2023-08-24T04:01:48;19.25;;;14.52;;
20020;SDS011;10171;42.694;23.318;2023-08-24T04:04:14;21.70;;;15.25;;
20020;SDS011;10171;42.694;23.318;2023-08-24T04:06:39;21.02;;;15.32;;
20020;SDS011;10171;42.694;23.318;2023-08-24T04:09:05;19.52;;;15.00;;
20020;SDS011;10171;42.694;23.318;2023-08-24T04:11:31;20.77;;;14.73;;
20020;SDS011;10171;42.694;23.318;2023-08-24T04:13:57;19.27;;;15.10;;
20020;SDS011;10171;42.694;23.318;2023-08-24T04:16:22;22.00;;;14.73;;
20020;SDS011;10171;42.694;23.318;2023-08-24T04:18:47;24.30;;;15.63;;
20020;SDS011;10171;42.694;23.318;2023-08-24T04:21:13;20.58;;;15.45;;
20020;SDS011;10171;42.694;23.318;2023-08-24T04:23:38;25.70;;;16.85;;
20020;SDS011;10171;42.694;23.318;2023-08-24T04:26:09;22.25;;;15.70;;
20020;SDS011;10171;42.694;23.318;2023-08-24T04:28:35;25.23;;;17.13;;
20020;SDS011;10171;42.694;23.318;2023-08-24T04:31:01;23.33;;;16.70;;
20020;SDS011;10171;42.694;23.318;2023-08-24T04:33:26;27.48;;;17.85;;
20020;SDS011;10171;42.694;23.318;2023-08-24T04:35:52;24.25;;;18.20;;
20020;SDS011;10171;42.694;23.318;2023-08-24T04:38:17;26.15;;;18.00;;
20020;SDS011;10171;42.694;23.318;2023-08-24T04:40:49;29.88;;;17.80;;
20020;SDS011;10171;42.694;23.318;2023-08-24T04:43:17;24.95;;;16.42;;
20020;SDS011;10171;42.694;23.318;2023-08-24T04:45:45;25.70;;;16.40;;
20020;SDS011;10171;42.694;23.318;2023-08-24T04:48:12;21.85;;;16.20;;
20020;SDS011;10171;42.694;23.318;2023-08-24T04:50:37;23.35;;;16.25;;
20020;SDS011;10171;42.694;23.318;2023-08-24T04:53:03;21.50;;;15.73;;
20020;SDS011;10171;42.694;23.318;2023-08-24T04:55:28;24.15;;;16.17;;
20020;SDS011;10171;42.694;23.318;2023-08-24T04:57:53;23.10;;;15.63;;
20020;SDS011;10171;42.694;23.318;2023-08-24T05:00:19;22.85;;;16.20;;
20020;SDS011;10171;42.694;23.318;2023-08-24T05:02:44;24.70;;;16.35;;
20020;SDS011;10171;42.694;23.318;2023-08-24T05:05:10;28.30;;;17.75;;
20020;SDS011;10171;42.694;23.318;2023-08-24T05:07:36;27.85;;;17.83;;
20020;SDS011;10171;42.694;23.318;2023-08-24T05:10:03;24.52;;;17.13;;
20020;SDS011;10171;42.694;23.318;2023-08-24T05:12:29;28.92;;;18.88;;
20020;SDS011;10171;42.694;23.318;2023-08-24T05:14:54;28.42;;;19.00;;
20020;SDS011;10171;42.694;23.318;2023-08-24T05:17:20;23.33;;;17.20;;
20020;SDS011;10171;42.694;23.318;2023-08-24T05:19:50;21.70;;;15.93;;
20020;SDS011;10171;42.694;23.318;2023-08-24T05:22:16;25.58;;;16.52;;
20020;SDS011;10171;42.694;23.318;2023-08-24T05:24:41;23.38;;;16.35;;
20020;SDS011;10171;42.694;23.318;2023-08-24T05:27:07;21.58;;;15.73;;
20020;SDS011;10171;42.694;23.318;2023-08-24T05:29:32;21.40;;;16.17;;
20020;SDS011;10171;42.694;23.318;2023-08-24T05:31:57;29.30;;;16.80;;
20020;SDS011;10171;42.694;23.318;2023-08-24T05:34:24;25.45;;;16.83;;
20020;SDS011;10171;42.694;23.318;2023-08-24T05:36:49;24.25;;;16.73;;
20020;SDS011;10171;42.694;23.318;2023-08-24T05:39:14;20.75;;;15.98;;
20020;SDS011;10171;42.694;23.318;2023-08-24T05:41:40;21.80;;;16.73;;
20020;SDS011;10171;42.694;23.318;2023-08-24T05:44:06;27.52;;;17.02;;
20020;SDS011;10171;42.694;23.318;2023-08-24T05:46:31;25.02;;;17.00;;
20020;SDS011;10171;42.694;23.318;2023-08-24T05:48:57;21.83;;;16.38;;
20020;SDS011;10171;42.694;23.318;2023-08-24T05:51:24;24.52;;;16.60;;
20020;SDS011;10171;42.694;23.318;2023-08-24T05:53:50;23.92;;;17.92;;
20020;SDS011;10171;42.694;23.318;2023-08-24T05:56:20;24.42;;;17.10;;
20020;SDS011;10171;42.694;23.318;2023-08-24T05:58:46;22.60;;;16.75;;
20020;SDS011;10171;42.694;23.318;2023-08-24T06:01:12;24.10;;;17.27;;
20020;SDS011;10171;42.694;23.318;2023-08-24T06:03:38;24.48;;;17.90;;
20020;SDS011;10171;42.694;23.318;2023-08-24T06:06:03;29.70;;;16.73;;
20020;SDS011;10171;42.694;23.318;2023-08-24T06:08:29;24.85;;;17.38;;
20020;SDS011;10171;42.694;23.318;2023-08-24T06:10:56;27.20;;;17.98;;
20020;SDS011;10171;42.694;23.318;2023-08-24T06:13:22;22.30;;;17.10;;
20020;SDS011;10171;42.694;23.318;2023-08-24T06:15:47;25.33;;;18.13;;
20020;SDS011;10171;42.694;23.318;2023-08-24T06:18:13;25.05;;;18.60;;
20020;SDS011;10171;42.694;23.318;2023-08-24T06:20:38;31.65;;;18.90;;
20020;SDS011;10171;42.694;23.318;2023-08-24T06:23:04;29.25;;;18.70;;
20020;SDS011;10171;42.694;23.318;2023-08-24T06:25:30;31.85;;;19.42;;
20020;SDS011;10171;42.694;23.318;2023-08-24T06:27:57;27.85;;;18.45;;
20020;SDS011;10171;42.694;23.318;2023-08-24T06:30:24;26.05;;;18.60;;
20020;SDS011;10171;42.694;23.318;2023-08-24T06:32:50;24.55;;;18.20;;
20020;SDS011;10171;42.694;23.318;2023-08-24T06:35:15;25.23;;;18.55;;
20020;SDS011;10171;42.694;23.318;2023-08-24T06:37:41;27.20;;;18.77;;
20020;SDS011;10171;42.694;23.318;2023-08-24T06:40:07;30.13;;;18.00;;
20020;SDS011;10171;42.694;23.318;2023-08-24T06:42:33;29.35;;;18.95;;
20020;SDS011;10171;42.694;23.318;2023-08-24T06:44:59;22.35;;;17.52;;
20020;SDS011;10171;42.694;23.318;2023-08-24T06:47:24;29.70;;;19.25;;
20020;SDS011;10171;42.694;23.318;2023-08-24T06:49:50;27.60;;;18.15;;
20020;SDS011;10171;42.694;23.318;2023-08-24T06:52:16;26.70;;;18.83;;
20020;SDS011;10171;42.694;23.318;2023-08-24T06:54:41;26.80;;;17.98;;
20020;SDS011;10171;42.694;23.318;2023-08-24T06:57:06;27.55;;;18.70;;
20020;SDS011;10171;42.694;23.318;2023-08-24T06:59:32;25.73;;;18.55;;
20020;SDS011;10171;42.694;23.318;2023-08-24T07:01:58;29.65;;;18.40;;
20020;SDS011;10171;42.694;23.318;2023-08-24T07:04:23;25.80;;;18.52;;
20020;SDS011;10171;42.694;23.318;2023-08-24T07:06:50;26.48;;;17.05;;
20020;SDS011;10171;42.694;23.318;2023-08-24T07:09:16;25.92;;;17.10;;
20020;SDS011;10171;42.694;23.318;2023-08-24T07:11:43;21.33;;;15.80;;
20020;SDS011;10171;42.694;23.318;2023-08-24T07:14:09;22.48;;;16.02;;
20020;SDS011;10171;42.694;23.318;2023-08-24T07:16:34;22.02;;;14.95;;
20020;SDS011;10171;42.694;23.318;2023-08-24T07:18:59;22.25;;;15.30;;
20020;SDS011;10171;42.694;23.318;2023-08-24T07:21:25;21.88;;;16.10;;
20020;SDS011;10171;42.694;23.318;2023-08-24T07:23:50;21.67;;;15.75;;
20020;SDS011;10171;42.694;23.318;2023-08-24T07:26:16;20.92;;;16.25;;
20020;SDS011;10171;42.694;23.318;2023-08-24T07:28:41;23.08;;;16.60;;
20020;SDS011;10171;42.694;23.318;2023-08-24T07:31:10;21.50;;;15.88;;
20020;SDS011;10171;42.694;23.318;2023-08-24T07:33:40;21.17;;;15.02;;
20020;SDS011;10171;42.694;23.318;2023-08-24T07:36:09;26.92;;;16.90;;
20020;SDS011;10171;42.694;23.318;2023-08-24T07:38:34;21.95;;;16.10;;
20020;SDS011;10171;42.694;23.318;2023-08-24T07:41:00;24.92;;;16.65;;
20020;SDS011;10171;42.694;23.318;2023-08-24T07:43:25;23.92;;;16.40;;
20020;SDS011;10171;42.694;23.318;2023-08-24T07:45:50;22.48;;;14.93;;
20020;SDS011;10171;42.694;23.318;2023-08-24T07:48:17;18.40;;;14.50;;
20020;SDS011;10171;42.694;23.318;2023-08-24T07:50:42;18.92;;;14.65;;
20020;SDS011;10171;42.694;23.318;2023-08-24T07:53:08;20.50;;;14.77;;
20020;SDS011;10171;42.694;23.318;2023-08-24T07:55:33;21.30;;;16.83;;
20020;SDS011;10171;42.694;23.318;2023-08-24T07:57:59;20.33;;;16.23;;
20020;SDS011;10171;42.694;23.318;2023-08-24T08:00:25;20.27;;;16.35;;
20020;SDS011;10171;42.694;23.318;2023-08-24T08:02:51;21.80;;;14.73;;
20020;SDS011;10171;42.694;23.318;2023-08-24T08:05:20;21.60;;;15.75;;
20020;SDS011;10171;42.694;23.318;2023-08-24T08:07:47;21.77;;;15.98;;
20020;SDS011;10171;42.694;23.318;2023-08-24T08:10:13;22.70;;;16.90;;
20020;SDS011;10171;42.694;23.318;2023-08-24T08:12:40;21.83;;;16.08;;
20020;SDS011;10171;42.694;23.318;2023-08-24T08:15:05;19.35;;;14.30;;
20020;SDS011;10171;42.694;23.318;2023-08-24T08:17:32;17.55;;;14.40;;
20020;SDS011;10171;42.694;23.318;2023-08-24T08:19:58;21.38;;;15.55;;
20020;SDS011;10171;42.694;23.318;2023-08-24T08:22:24;23.13;;;14.00;;
20020;SDS011;10171;42.694;23.318;2023-08-24T08:24:50;20.13;;;14.50;;
20020;SDS011;10171;42.694;23.318;2023-08-24T08:27:16;20.75;;;15.75;;
20020;SDS011;10171;42.694;23.318;2023-08-24T08:29:42;22.15;;;14.73;;
20020;SDS011;10171;42.694;23.318;2023-08-24T08:32:08;19.83;;;14.68;;
20020;SDS011;10171;42.694;23.318;2023-08-24T08:34:33;17.70;;;14.80;;
20020;SDS011;10171;42.694;23.318;2023-08-24T08:36:59;22.45;;;16.02;;
20020;SDS011;10171;42.694;23.318;2023-08-24T08:39:24;19.08;;;14.40;;
20020;SDS011;10171;42.694;23.318;2023-08-24T08:41:50;20.80;;;15.40;;
20020;SDS011;10171;42.694;23.318;2023-08-24T08:44:15;20.00;;;15.48;;
20020;SDS011;10171;42.694;23.318;2023-08-24T08:46:42;20.50;;;14.60;;
20020;SDS011;10171;42.694;23.318;2023-08-24T08:49:08;17.90;;;14.32;;
20020;SDS011;10171;42.694;23.318;2023-08-24T08:51:36;21.05;;;15.57;;
20020;SDS011;10171;42.694;23.318;2023-08-24T08:54:04;18.17;;;14.45;;
20020;SDS011;10171;42.694;23.318;2023-08-24T08:56:31;18.67;;;13.43;;
20020;SDS011;10171;42.694;23.318;2023-08-24T08:58:58;17.25;;;14.25;;
20020;SDS011;10171;42.694;23.318;2023-08-24T09:01:25;18.50;;;15.15;;
20020;SDS011;10171;42.694;23.318;2023-08-24T09:03:52;16.38;;;14.07;;
20020;SDS011;10171;42.694;23.318;2023-08-24T09:06:18;18.58;;;13.80;;
20020;SDS011;10171;42.694;23.318;2023-08-24T09:08:44;20.13;;;14.68;;
20020;SDS011;10171;42.694;23.318;2023-08-24T09:11:10;18.70;;;14.55;;
20020;SDS011;10171;42.694;23.318;2023-08-24T09:13:35;18.85;;;13.75;;
20020;SDS011;10171;42.694;23.318;2023-08-24T09:16:07;18.20;;;14.48;;
20020;SDS011;10171;42.694;23.318;2023-08-24T09:18:37;18.20;;;14.52;;
20020;SDS011;10171;42.694;23.318;2023-08-24T09:21:09;18.65;;;14.93;;
20020;SDS011;10171;42.694;23.318;2023-08-24T09:23:35;20.95;;;15.68;;
20020;SDS011;10171;42.694;23.318;2023-08-24T09:26:01;19.95;;;15.05;;
20020;SDS011;10171;42.694;23.318;2023-08-24T09:28:26;18.17;;;14.63;;
20020;SDS011;10171;42.694;23.318;2023-08-24T09:30:52;18.13;;;15.40;;
20020;SDS011;10171;42.694;23.318;2023-08-24T09:33:21;19.95;;;14.43;;
20020;SDS011;10171;42.694;23.318;2023-08-24T09:35:52;17.48;;;14.85;;
20020;SDS011;10171;42.694;23.318;2023-08-24T09:38:18;20.73;;;15.05;;
20020;SDS011;10171;42.694;23.318;2023-08-24T09:40:46;20.83;;;15.02;;
20020;SDS011;10171;42.694;23.318;2023-08-24T09:43:16;23.55;;;16.40;;
20020;SDS011;10171;42.694;23.318;2023-08-24T09:46:17;18.70;;;14.95;;
20020;SDS011;10171;42.694;23.318;2023-08-24T09:48:33;20.33;;;15.25;;
20020;SDS011;10171;42.694;23.318;2023-08-24T09:51:00;15.98;;;13.85;;
20020;SDS011;10171;42.694;23.318;2023-08-24T09:53:29;16.73;;;14.13;;
20020;SDS011;10171;42.694;23.318;2023-08-24T09:58:26;15.07;;;13.38;;
20020;SDS011;10171;42.694;23.318;2023-08-24T10:00:53;15.13;;;13.30;;
20020;SDS011;10171;42.694;23.318;2023-08-24T10:03:20;19.13;;;13.77;;
20020;SDS011;10171;42.694;23.318;2023-08-24T10:05:50;16.13;;;14.15;;
20020;SDS011;10171;42.694;23.318;2023-08-24T10:08:18;16.20;;;14.13;;
20020;SDS011;10171;42.694;23.318;2023-08-24T10:10:47;17.27;;;13.35;;
20020;SDS011;10171;42.694;23.318;2023-08-24T10:13:18;20.17;;;13.15;;
20020;SDS011;10171;42.694;23.318;2023-08-24T10:15:48;18.05;;;14.10;;
20020;SDS011;10171;42.694;23.318;2023-08-24T10:18:15;16.13;;;14.32;;
20020;SDS011;10171;42.694;23.318;2023-08-24T10:20:41;15.18;;;13.30;;
20020;SDS011;10171;42.694;23.318;2023-08-24T10:23:08;15.43;;;13.52;;
20020;SDS011;10171;42.694;23.318;2023-08-24T10:25:36;14.10;;;12.60;;
20020;SDS011;10171;42.694;23.318;2023-08-24T10:28:03;17.23;;;12.60;;
20020;SDS011;10171;42.694;23.318;2023-08-24T10:30:30;14.80;;;10.63;;
20020;SDS011;10171;42.694;23.318;2023-08-24T10:32:56;13.27;;;11.10;;
20020;SDS011;10171;42.694;23.318;2023-08-24T10:35:22;13.38;;;10.85;;
20020;SDS011;10171;42.694;23.318;2023-08-24T10:37:51;14.30;;;11.50;;
20020;SDS011;10171;42.694;23.318;2023-08-24T10:40:34;13.57;;;12.18;;
20020;SDS011;10171;42.694;23.318;2023-08-24T10:43:03;13.77;;;11.52;;
20020;SDS011;10171;42.694;23.318;2023-08-24T10:48:24;15.63;;;12.27;;
20020;SDS011;10171;42.694;23.318;2023-08-24T10:56:16;15.32;;;12.45;;
20020;SDS011;10171;42.694;23.318;2023-08-24T10:58:42;15.30;;;12.80;;
20020;SDS011;10171;42.694;23.318;2023-08-24T11:01:19;17.25;;;12.43;;
20020;SDS011;10171;42.694;23.318;2023-08-24T11:03:50;18.42;;;13.15;;
20020;SDS011;10171;42.694;23.318;2023-08-24T11:06:26;14.48;;;11.40;;
20020;SDS011;10171;42.694;23.318;2023-08-24T11:09:06;12.00;;;10.60;;
20020;SDS011;10171;42.694;23.318;2023-08-24T11:11:40;11.93;;;10.65;;
20020;SDS011;10171;42.694;23.318;2023-08-24T11:14:16;15.27;;;9.98;;
20020;SDS011;10171;42.694;23.318;2023-08-24T11:16:52;13.82;;;10.77;;
20020;SDS011;10171;42.694;23.318;2023-08-24T11:19:18;13.52;;;10.75;;
20020;SDS011;10171;42.694;23.318;2023-08-24T11:21:44;12.73;;;11.43;;
20020;SDS011;10171;42.694;23.318;2023-08-24T11:24:14;18.08;;;11.48;;
20020;SDS011;10171;42.694;23.318;2023-08-24T11:26:45;13.57;;;11.75;;
20020;SDS011;10171;42.694;23.318;2023-08-24T11:29:12;15.43;;;12.23;;
20020;SDS011;10171;42.694;23.318;2023-08-24T11:31:39;13.90;;;11.93;;
20020;SDS011;10171;42.694;23.318;2023-08-24T11:34:05;15.40;;;12.27;;
20020;SDS011;10171;42.694;23.318;2023-08-24T11:36:41;15.98;;;12.25;;
20020;SDS011;10171;42.694;23.318;2023-08-24T11:39:13;15.02;;;12.50;;
20020;SDS011;10171;42.694;23.318;2023-08-24T11:41:44;14.27;;;12.25;;
20020;SDS011;10171;42.694;23.318;2023-08-24T11:44:21;16.75;;;11.63;;
20020;SDS011;10171;42.694;23.318;2023-08-24T11:46:46;11.90;;;10.25;;
20020;SDS011;10171;42.694;23.318;2023-08-24T11:49:12;13.90;;;10.65;;
20020;SDS011;10171;42.694;23.318;2023-08-24T11:51:37;11.50;;;10.30;;
20020;SDS011;10171;42.694;23.318;2023-08-24T11:54:03;13.38;;;11.68;;
20020;SDS011;10171;42.694;23.318;2023-08-24T11:56:29;14.73;;;12.18;;
20020;SDS011;10171;42.694;23.318;2023-08-24T11:58:54;16.02;;;11.88;;
20020;SDS011;10171;42.694;23.318;2023-08-24T12:01:20;12.68;;;11.20;;
20020;SDS011;10171;42.694;23.318;2023-08-24T12:03:46;12.52;;;10.75;;
20020;SDS011;10171;42.694;23.318;2023-08-24T12:06:12;12.95;;;11.07;;
20020;SDS011;10171;42.694;23.318;2023-08-24T12:08:46;14.68;;;11.32;;
20020;SDS011;10171;42.694;23.318;2023-08-24T12:11:13;17.30;;;11.38;;
20020;SDS011;10171;42.694;23.318;2023-08-24T12:13:50;12.95;;;10.90;;
20020;SDS011;10171;42.694;23.318;2023-08-24T12:16:17;12.80;;;10.50;;
20020;SDS011;10171;42.694;23.318;2023-08-24T12:18:46;14.10;;;11.32;;
20020;SDS011;10171;42.694;23.318;2023-08-24T12:21:24;16.80;;;10.88;;
20020;SDS011;10171;42.694;23.318;2023-08-24T12:23:59;14.10;;;11.07;;
20020;SDS011;10171;42.694;23.318;2023-08-24T12:26:27;12.38;;;10.68;;
20020;SDS011;10171;42.694;23.318;2023-08-24T12:28:59;15.82;;;11.02;;
20020;SDS011;10171;42.694;23.318;2023-08-24T12:31:26;12.77;;;11.02;;
20020;SDS011;10171;42.694;23.318;2023-08-24T12:34:03;16.80;;;11.00;;
20020;SDS011;10171;42.694;23.318;2023-08-24T12:36:31;15.13;;;11.10;;
20020;SDS011;10171;42.694;23.318;2023-08-24T12:38:57;15.60;;;11.85;;
20020;SDS011;10171;42.694;23.318;2023-08-24T12:41:23;14.70;;;11.93;;
20020;SDS011;10171;42.694;23.318;2023-08-24T12:43:49;14.07;;;10.82;;
20020;SDS011;10171;42.694;23.318;2023-08-24T12:46:15;13.02;;;11.43;;
20020;SDS011;10171;42.694;23.318;2023-08-24T12:48:41;14.57;;;12.05;;
20020;SDS011;10171;42.694;23.318;2023-08-24T12:51:06;14.70;;;11.65;;
20020;SDS011;10171;42.694;23.318;2023-08-24T12:53:32;15.77;;;11.57;;
20020;SDS011;10171;42.694;23.318;2023-08-24T12:55:57;12.65;;;11.27;;
20020;SDS011;10171;42.694;23.318;2023-08-24T12:58:22;20.33;;;12.63;;
20020;SDS011;10171;42.694;23.318;2023-08-24T13:00:48;16.67;;;11.73;;
20020;SDS011;10171;42.694;23.318;2023-08-24T13:03:14;19.42;;;11.95;;
20020;SDS011;10171;42.694;23.318;2023-08-24T13:05:39;22.58;;;12.45;;
20020;SDS011;10171;42.694;23.318;2023-08-24T13:08:05;18.52;;;12.13;;
20020;SDS011;10171;42.694;23.318;2023-08-24T13:10:30;15.00;;;13.13;;
20020;SDS011;10171;42.694;23.318;2023-08-24T13:12:55;13.80;;;11.35;;
20020;SDS011;10171;42.694;23.318;2023-08-24T13:15:22;15.25;;;11.32;;
20020;SDS011;10171;42.694;23.318;2023-08-24T13:17:47;12.82;;;11.05;;
20020;SDS011;10171;42.694;23.318;2023-08-24T13:20:13;14.90;;;11.65;;
20020;SDS011;10171;42.694;23.318;2023-08-24T13:22:38;13.30;;;10.68;;
20020;SDS011;10171;42.694;23.318;2023-08-24T13:25:04;16.10;;;10.32;;
20020;SDS011;10171;42.694;23.318;2023-08-24T13:27:29;15.77;;;11.27;;
20020;SDS011;10171;42.694;23.318;2023-08-24T13:29:56;12.60;;;10.85;;
20020;SDS011;10171;42.694;23.318;2023-08-24T13:32:24;13.95;;;10.88;;
20020;SDS011;10171;42.694;23.318;2023-08-24T13:34:50;17.40;;;12.30;;
20020;SDS011;10171;42.694;23.318;2023-08-24T13:37:16;17.77;;;12.35;;
20020;SDS011;10171;42.694;23.318;2023-08-24T13:39:43;16.25;;;11.95;;
20020;SDS011;10171;42.694;23.318;2023-08-24T13:42:08;15.40;;;12.05;;
20020;SDS011;10171;42.694;23.318;2023-08-24T13:44:34;15.90;;;11.68;;
20020;SDS011;10171;42.694;23.318;2023-08-24T13:46:59;15.88;;;11.90;;
20020;SDS011;10171;42.694;23.318;2023-08-24T13:49:24;18.23;;;13.38;;
20020;SDS011;10171;42.694;23.318;2023-08-24T13:51:50;16.60;;;13.23;;
20020;SDS011;10171;42.694;23.318;2023-08-24T13:54:16;20.38;;;13.13;;
20020;SDS011;10171;42.694;23.318;2023-08-24T13:56:46;16.50;;;12.73;;
20020;SDS011;10171;42.694;23.318;2023-08-24T13:59:13;17.65;;;13.35;;
20020;SDS011;10171;42.694;23.318;2023-08-24T14:01:39;16.67;;;12.27;;
20020;SDS011;10171;42.694;23.318;2023-08-24T14:04:05;18.58;;;13.68;;
20020;SDS011;10171;42.694;23.318;2023-08-24T14:06:31;17.13;;;12.88;;
20020;SDS011;10171;42.694;23.318;2023-08-24T14:08:59;14.27;;;11.93;;
20020;SDS011;10171;42.694;23.318;2023-08-24T14:11:25;17.33;;;12.98;;
20020;SDS011;10171;42.694;23.318;2023-08-24T14:13:50;16.42;;;12.40;;
20020;SDS011;10171;42.694;23.318;2023-08-24T14:16:17;13.93;;;12.15;;
20020;SDS011;10171;42.694;23.318;2023-08-24T14:18:42;16.30;;;12.48;;
20020;SDS011;10171;42.694;23.318;2023-08-24T14:21:08;13.85;;;12.27;;